Time;durP1;ratioP1;P1;durP2;ratioP2;P2;SDS_P1;SDS_P2;PMS_P1;PMS_P2;Temp;Humidity;BMP_temperature;BMP_pressure;BME280_temperature;BME280_humidity;BME280_pressure;Samples;Min_cycle;Max_cycle;Signal;HPM_P1;HPM_P2
2021/09/16 00:00:42;;;;;;;;;;;;;;;-144.99;100.00;52350.25;5080123;28;20005;-77
2021/09/16 00:03:09;;;;;;;;;;;;;;;-144.99;100.00;52370.63;5116415;22;20036;-71
2021/09/16 00:05:36;;;;;;;;;;;;;;;-144.99;100.00;52374.72;5078542;28;20700;-74
2021/09/16 00:08:02;;;;;;;;;;;;;;;-144.99;100.00;52350.25;5087354;28;19975;-72
2021/09/16 00:10:30;;;;;;;;;;;;;;;-144.99;100.00;52350.25;5090458;28;20018;-74
2021/09/16 00:12:56;;;;;;;;;;;;;;;-144.99;100.00;52354.34;5090913;28;19996;-72
2021/09/16 00:15:23;;;;;;;;;;;;;;;-144.99;100.00;52350.25;5095513;28;19978;-73
2021/09/16 00:17:49;;;;;;;;;;;;;;;-144.99;100.00;52368.59;5099411;28;20077;-73
2021/09/16 00:20:16;;;;;;;;;;;;;;;-144.99;100.00;52362.50;5083595;28;21186;-73
2021/09/16 00:22:42;;;;;;;;;;;;;;;-144.99;100.00;52346.19;5091532;28;19995;-75
2021/09/16 00:25:09;;;;;;;;;;;;;;;-144.99;100.00;52333.94;5099583;28;20388;-74
2021/09/16 00:27:37;;;;;;;;;;;;;;;-144.99;100.00;52350.25;5103550;28;20198;-76
2021/09/16 00:30:04;;;;;;;;;;;;;;;-144.99;100.00;52346.19;5101193;28;20043;-73
2021/09/16 00:32:30;;;;;;;;;;;;;;;-144.99;100.00;52313.56;5096953;28;19990;-73
2021/09/16 00:34:57;;;;;;;;;;;;;;;-144.99;100.00;52362.50;5098185;28;19978;-76
2021/09/16 00:37:23;;;;;;;;;;;;;;;-144.99;100.00;52338.03;5089743;28;20079;-75
2021/09/16 00:39:50;;;;;;;;;;;;;;;-144.99;100.00;52358.41;5098930;28;19971;-77
2021/09/16 00:42:17;;;;;;;;;;;;;;;-144.99;100.00;52346.19;5106070;28;20029;-75
2021/09/16 00:44:45;;;;;;;;;;;;;;;-144.99;100.00;52350.25;5100396;28;19972;-76
2021/09/16 00:47:13;;;;;;;;;;;;;;;-144.99;100.00;52362.50;5104168;28;19975;-78
2021/09/16 00:49:39;;;;;;;;;;;;;;;-144.99;100.00;52384.91;5102124;28;19982;-75
2021/09/16 00:52:07;;;;;;;;;;;;;;;-144.99;100.00;52374.72;5099980;28;20029;-76
2021/09/16 00:54:35;;;;;;;;;;;;;;;-144.99;100.00;52370.63;5095124;28;20038;-75
2021/09/16 00:57:02;;;;;;;;;;;;;;;-144.99;100.00;52336.00;5104260;28;20003;-76
2021/09/16 00:59:29;;;;;;;;;;;;;;;-144.99;100.00;52395.09;5100164;28;20014;-75
2021/09/16 01:01:57;;;;;;;;;;;;;;;-144.99;100.00;52356.38;5109411;28;20311;-76
2021/09/16 01:04:24;;;;;;;;;;;;;;;-144.99;100.00;52360.44;5095941;28;20046;-75
2021/09/16 01:06:51;;;;;;;;;;;;;;;-144.99;100.00;52386.94;5093758;28;19972;-75
2021/09/16 01:09:17;;;;;;;;;;;;;;;-144.99;100.00;52382.88;5092737;28;19978;-75
2021/09/16 01:11:43;;;;;;;;;;;;;;;-144.99;100.00;52346.19;5095395;28;20432;-75
2021/09/16 01:14:10;;;;;;;;;;;;;;;-144.99;100.00;52382.88;5098231;28;19991;-75
2021/09/16 01:16:37;;;;;;;;;;;;;;;-144.99;100.00;52393.06;5094042;28;20072;-74
2021/09/16 01:19:04;;;;;;;;;;;;;;;-144.99;100.00;52388.97;5098174;28;19966;-75
2021/09/16 01:21:32;;;;;;;;;;;;;;;-144.99;100.00;52378.78;5100885;28;19993;-76
2021/09/16 01:23:59;;;;;;;;;;;;;;;-144.99;100.00;52352.28;5094031;28;20106;-75
2021/09/16 01:26:26;;;;;;;;;;;;;;;-144.99;100.00;52391.03;5091293;28;20039;-74
2021/09/16 01:28:53;;;;;;;;;;;;;;;-144.99;100.00;52378.78;5097668;28;20013;-75
2021/09/16 01:31:33;;;;;;;;;;;;;;;-144.99;100.00;52378.78;5098773;28;19982;-77
2021/09/16 01:34:01;;;;;;;;;;;;;;;-144.99;100.00;52364.53;5095668;28;20038;-74
2021/09/16 01:36:28;;;;;;;;;;;;;;;-144.99;100.00;52370.63;5090121;28;19974;-74
2021/09/16 01:38:54;;;;;;;;;;;;;;;-144.99;100.00;52370.63;5098183;28;20007;-74
2021/09/16 01:41:22;;;;;;;;;;;;;;;-144.99;100.00;52382.88;5100379;28;19985;-76
2021/09/16 01:43:49;;;;;;;;;;;;;;;-144.99;100.00;52350.25;5105120;28;19980;-75
2021/09/16 01:46:15;;;;;;;;;;;;;;;-144.99;100.00;52368.59;5089457;28;20000;-75
2021/09/16 01:48:42;;;;;;;;;;;;;;;-144.99;100.00;52386.94;5094879;28;19980;-73
2021/09/16 01:51:08;;;;;;;;;;;;;;;-144.99;100.00;52370.63;5105431;28;19980;-78
2021/09/16 01:53:37;;;;;;;;;;;;;;;-144.99;100.00;52393.06;5098774;28;20531;-77
2021/09/16 01:56:04;;;;;;;;;;;;;;;-144.99;100.00;52366.56;5107978;28;19972;-78
2021/09/16 01:58:32;;;;;;;;;;;;;;;-144.99;100.00;52366.56;5099907;28;20022;-73
2021/09/16 02:00:58;;;;;;;;;;;;;;;-144.99;100.00;52407.31;5087193;28;19969;-73
2021/09/16 02:03:25;;;;;;;;;;;;;;;-144.99;100.00;52395.09;5084692;28;20034;-72
2021/09/16 02:05:51;;;;;;;;;;;;;;;-144.99;100.00;52417.53;5080368;28;19974;-73
2021/09/16 02:08:18;;;;;;;;;;;;;;;-144.99;100.00;52374.72;5088243;28;20019;-75
2021/09/16 02:10:44;;;;;;;;;;;;;;;-144.99;100.00;52391.03;5087684;28;19955;-74
2021/09/16 02:13:11;;;;;;;;;;;;;;;-144.99;100.00;52382.88;5093274;28;19990;-72
2021/09/16 02:15:39;;;;;;;;;;;;;;;-144.99;100.00;52378.78;5081537;28;20089;-72
2021/09/16 02:18:05;;;;;;;;;;;;;;;-144.99;100.00;52382.88;5088733;28;19978;-73
2021/09/16 02:20:31;;;;;;;;;;;;;;;-144.99;100.00;52386.94;5081106;28;20075;-73
2021/09/16 02:22:58;;;;;;;;;;;;;;;-144.99;100.00;52388.97;5079453;28;20092;-72
2021/09/16 02:25:24;;;;;;;;;;;;;;;-144.99;100.00;52364.53;5088222;28;19974;-72
2021/09/16 02:27:51;;;;;;;;;;;;;;;-144.99;100.00;52401.22;5089047;28;19979;-72
2021/09/16 02:30:17;;;;;;;;;;;;;;;-144.99;100.00;52391.03;5086262;28;20114;-73
2021/09/16 02:32:45;;;;;;;;;;;;;;;-144.99;100.00;52382.88;5089354;28;20449;-73
2021/09/16 02:35:12;;;;;;;;;;;;;;;-144.99;100.00;52409.38;5102683;28;20035;-74
2021/09/16 02:37:39;;;;;;;;;;;;;;;-144.99;100.00;52386.94;5094863;28;20350;-73
2021/09/16 02:40:06;;;;;;;;;;;;;;;-144.99;100.00;52366.56;5087794;28;19980;-74
2021/09/16 02:42:32;;;;;;;;;;;;;;;-144.99;100.00;52399.19;5094538;28;19985;-75
2021/09/16 02:44:59;;;;;;;;;;;;;;;-144.99;100.00;52427.72;5100592;28;19982;-74
2021/09/16 02:47:26;;;;;;;;;;;;;;;-144.99;100.00;52378.78;5098532;28;19997;-76
2021/09/16 02:49:54;;;;;;;;;;;;;;;-144.99;100.00;52407.31;5096293;28;19969;-74
2021/09/16 02:52:20;;;;;;;;;;;;;;;-144.99;100.00;52399.19;5090393;28;19978;-72
2021/09/16 02:54:47;;;;;;;;;;;;;;;-144.99;100.00;52384.91;5098091;28;20068;-77
2021/09/16 02:57:13;;;;;;;;;;;;;;;-144.99;100.00;52419.56;5101900;28;19974;-76
2021/09/16 02:59:39;;;;;;;;;;;;;;;-144.99;100.00;52435.88;5091309;28;20010;-77
2021/09/16 03:02:06;;;;;;;;;;;;;;;-144.99;100.00;52415.47;5099044;28;19995;-74
2021/09/16 03:04:32;;;;;;;;;;;;;;;-144.99;100.00;52354.34;5097967;28;20037;-78
2021/09/16 03:07:01;;;;;;;;;;;;;;;-144.99;100.00;52419.56;5101364;28;20000;-75
2021/09/16 03:09:27;;;;;;;;;;;;;;;-144.99;100.00;52407.31;5095375;28;20433;-77
2021/09/16 03:11:54;;;;;;;;;;;;;;;-144.99;100.00;52431.78;5098860;28;19972;-78
2021/09/16 03:14:20;;;;;;;;;;;;;;;-144.99;100.00;52419.56;5089349;28;20076;-76
2021/09/16 03:16:46;;;;;;;;;;;;;;;-144.99;100.00;52407.31;5090081;28;20110;-75
2021/09/16 03:19:13;;;;;;;;;;;;;;;-144.99;100.00;52354.34;5092271;28;20438;-76
2021/09/16 03:21:39;;;;;;;;;;;;;;;-144.99;100.00;52391.03;5095168;28;20127;-76
2021/09/16 03:24:07;;;;;;;;;;;;;;;-144.99;100.00;52407.31;5087009;28;20045;-76
2021/09/16 03:26:34;;;;;;;;;;;;;;;-144.99;100.00;52407.31;5087943;28;19969;-76
2021/09/16 03:29:00;;;;;;;;;;;;;;;-144.99;100.00;52399.19;5088996;28;20051;-74
2021/09/16 03:31:26;;;;;;;;;;;;;;;-144.99;100.00;52388.97;5112367;28;19972;-76
2021/09/16 03:33:53;;;;;;;;;;;;;;;-144.99;100.00;52388.97;5096355;28;20075;-75
2021/09/16 03:36:19;;;;;;;;;;;;;;;-144.99;100.00;52407.31;5093396;28;20508;-74
2021/09/16 03:38:49;;;;;;;;;;;;;;;-144.99;100.00;52382.88;5093554;28;20427;-72
2021/09/16 03:41:16;;;;;;;;;;;;;;;-144.99;100.00;52421.59;5096611;28;19966;-74
2021/09/16 03:43:43;;;;;;;;;;;;;;;-144.99;100.00;52399.19;5097744;28;19989;-74
2021/09/16 03:46:09;;;;;;;;;;;;;;;-144.99;100.00;52423.63;5096552;28;20028;-75
2021/09/16 03:48:36;;;;;;;;;;;;;;;-144.99;100.00;52391.03;5096613;28;19970;-74
2021/09/16 03:51:02;;;;;;;;;;;;;;;-144.99;100.00;52421.59;5096880;28;20438;-74
2021/09/16 03:53:29;;;;;;;;;;;;;;;-144.99;100.00;52423.63;5101402;28;20054;-72
2021/09/16 03:55:55;;;;;;;;;;;;;;;-144.99;100.00;52366.56;5098493;28;19987;-74
2021/09/16 03:58:23;;;;;;;;;;;;;;;-144.99;100.00;52444.03;5097076;28;19965;-74
2021/09/16 04:00:49;;;;;;;;;;;;;;;-144.99;100.00;52393.06;5095398;28;19981;-74
2021/09/16 04:03:18;;;;;;;;;;;;;;;-144.99;100.00;52395.09;5092080;28;19924;-74
2021/09/16 04:05:44;;;;;;;;;;;;;;;-144.99;100.00;52411.41;5090388;28;19971;-73
2021/09/16 04:08:11;;;;;;;;;;;;;;;-144.99;100.00;52427.72;5089423;28;20073;-73
2021/09/16 04:10:38;;;;;;;;;;;;;;;-144.99;100.00;52354.34;5087157;28;20349;-73
2021/09/16 04:13:06;;;;;;;;;;;;;;;-144.99;100.00;52382.88;5084373;28;19996;-73
2021/09/16 04:15:34;;;;;;;;;;;;;;;-144.99;100.00;52399.19;5093817;28;19973;-74
2021/09/16 04:18:01;;;;;;;;;;;;;;;-144.99;100.00;52417.53;5100020;28;20031;-74
2021/09/16 04:20:27;;;;;;;;;;;;;;;-144.99;100.00;52411.41;5093238;28;19971;-70
2021/09/16 04:22:53;;;;;;;;;;;;;;;-144.99;100.00;52419.56;5088714;28;20001;-69
2021/09/16 04:25:20;;;;;;;;;;;;;;;-144.99;100.00;52415.47;5088409;28;19975;-70
2021/09/16 04:27:46;;;;;;;;;;;;;;;-144.99;100.00;52452.16;5087299;28;20080;-69
2021/09/16 04:30:13;;;;;;;;;;;;;;;-144.99;100.00;52370.63;5085908;28;19973;-74
2021/09/16 04:32:41;;;;;;;;;;;;;;;-144.99;100.00;52419.56;5089339;28;20293;-70
2021/09/16 04:35:08;;;;;;;;;;;;;;;-144.99;100.00;52386.94;5088819;28;19986;-70
2021/09/16 04:37:35;;;;;;;;;;;;;;;-144.99;100.00;52427.72;5079853;28;19955;-71
2021/09/16 04:40:01;;;;;;;;;;;;;;;-144.99;100.00;52427.72;5090716;28;20214;-71
2021/09/16 04:42:28;;;;;;;;;;;;;;;-144.99;100.00;52419.56;5088925;28;19994;-71
2021/09/16 04:44:54;;;;;;;;;;;;;;;-144.99;100.00;52397.13;5091482;28;20070;-71
2021/09/16 04:47:21;;;;;;;;;;;;;;;-144.99;100.00;52399.19;5089474;28;20421;-69
2021/09/16 04:49:48;;;;;;;;;;;;;;;-144.99;100.00;52374.72;5088957;28;20015;-71
2021/09/16 04:52:15;;;;;;;;;;;;;;;-144.99;100.00;52407.31;5089825;28;19987;-70
2021/09/16 04:54:42;;;;;;;;;;;;;;;-144.99;100.00;52431.78;5088942;28;20426;-70
2021/09/16 04:57:09;;;;;;;;;;;;;;;-144.99;100.00;52407.31;5091494;28;20002;-69
2021/09/16 04:59:36;;;;;;;;;;;;;;;-144.99;100.00;52391.03;5083079;28;20004;-74
2021/09/16 05:02:02;;;;;;;;;;;;;;;-144.99;100.00;52431.78;5082573;28;19973;-74
2021/09/16 05:04:31;;;;;;;;;;;;;;;-144.99;100.00;52433.81;5087287;28;20073;-75
2021/09/16 05:06:59;;;;;;;;;;;;;;;-144.99;100.00;52407.31;5086130;28;20058;-74
2021/09/16 05:09:25;;;;;;;;;;;;;;;-144.99;100.00;52382.88;5090078;28;19973;-75
2021/09/16 05:11:52;;;;;;;;;;;;;;;-144.99;100.00;52358.41;4031316;28;10001205;-74
2021/09/16 05:14:18;;;;;;;;;;;;;;;-144.99;100.00;52415.47;5088493;28;19997;-75
2021/09/16 05:16:45;;;;;;;;;;;;;;;-144.99;100.00;52411.41;5088679;28;19973;-76
2021/09/16 05:19:11;;;;;;;;;;;;;;;-144.99;100.00;52435.88;5092936;28;20030;-75
2021/09/16 05:21:38;;;;;;;;;;;;;;;-144.99;100.00;52423.63;5088993;28;19986;-74
2021/09/16 05:24:06;;;;;;;;;;;;;;;-144.99;100.00;52388.97;5087811;28;20003;-73
2021/09/16 05:26:32;;;;;;;;;;;;;;;-144.99;100.00;52358.41;5086919;28;19978;-74
2021/09/16 05:28:59;;;;;;;;;;;;;;;-144.99;100.00;52395.09;5089186;28;20437;-75
2021/09/16 05:31:25;;;;;;;;;;;;;;;-144.99;100.00;52413.44;5089577;28;19950;-75
2021/09/16 05:33:52;;;;;;;;;;;;;;;-144.99;100.00;52407.31;5092756;28;20041;-76
2021/09/16 05:36:18;;;;;;;;;;;;;;;-144.99;100.00;52431.78;5106934;28;20046;-76
2021/09/16 05:38:44;;;;;;;;;;;;;;;-144.99;100.00;52382.88;5093464;28;20407;-74
2021/09/16 05:41:12;;;;;;;;;;;;;;;-144.99;100.00;52435.88;5087455;28;19958;-75
2021/09/16 05:43:39;;;;;;;;;;;;;;;-144.99;100.00;52433.81;5082755;28;20586;-73
2021/09/16 05:46:05;;;;;;;;;;;;;;;-144.99;100.00;52423.63;5085923;28;20083;-75
2021/09/16 05:48:31;;;;;;;;;;;;;;;-144.99;100.00;52382.88;5086501;28;19977;-74
2021/09/16 05:50:58;;;;;;;;;;;;;;;-144.99;100.00;52350.25;5085799;28;19980;-74
2021/09/16 05:53:24;;;;;;;;;;;;;;;-144.99;100.00;52401.22;5085532;28;20261;-74
2021/09/16 05:55:51;;;;;;;;;;;;;;;-144.99;100.00;52393.06;5085703;28;20406;-75
2021/09/16 05:58:18;;;;;;;;;;;;;;;-144.99;100.00;52415.47;5085416;28;20436;-75
2021/09/16 06:00:45;;;;;;;;;;;;;;;-144.99;100.00;52399.19;5084422;28;19964;-75
2021/09/16 06:03:11;;;;;;;;;;;;;;;-144.99;100.00;52431.78;5086326;28;19993;-76
2021/09/16 06:05:38;;;;;;;;;;;;;;;-144.99;100.00;52407.31;5085012;28;20112;-75
2021/09/16 06:08:04;;;;;;;;;;;;;;;-144.99;100.00;52417.53;5084836;28;19981;-74
2021/09/16 06:10:31;;;;;;;;;;;;;;;-144.99;100.00;52439.94;5090218;22;19998;-75
2021/09/16 06:12:58;;;;;;;;;;;;;;;-144.99;100.00;52419.56;5073315;28;20453;-73
2021/09/16 06:15:25;;;;;;;;;;;;;;;-144.99;100.00;52423.63;5073535;28;19960;-72
2021/09/16 06:17:52;;;;;;;;;;;;;;;-144.99;100.00;52407.31;5069598;28;19963;-73
2021/09/16 06:20:18;;;;;;;;;;;;;;;-144.99;100.00;52415.47;5087262;28;20476;-72
2021/09/16 06:22:46;;;;;;;;;;;;;;;-144.99;100.00;52415.47;5102469;28;19981;-74
2021/09/16 06:25:13;;;;;;;;;;;;;;;-144.99;100.00;52411.41;5099073;28;19973;-74
2021/09/16 06:27:39;;;;;;;;;;;;;;;-144.99;100.00;52362.50;5083677;28;20072;-75
2021/09/16 06:30:06;;;;;;;;;;;;;;;-144.99;100.00;52427.72;5088701;28;20008;-73
2021/09/16 06:32:37;;;;;;;;;;;;;;;-144.99;100.00;52409.38;5083146;28;19975;-74
2021/09/16 06:35:03;;;;;;;;;;;;;;;-144.99;100.00;52370.63;5098892;28;19979;-74
2021/09/16 06:37:30;;;;;;;;;;;;;;;-144.99;100.00;52378.78;5078443;28;20024;-76
2021/09/16 06:39:56;;;;;;;;;;;;;;;-144.99;100.00;52391.03;5083000;28;19989;-73
2021/09/16 06:42:22;;;;;;;;;;;;;;;-144.99;100.00;52386.94;5092150;28;20160;-74
2021/09/16 06:44:49;;;;;;;;;;;;;;;-144.99;100.00;52386.94;5103092;28;20084;-74
2021/09/16 06:47:15;;;;;;;;;;;;;;;-144.99;100.00;52419.56;5086444;28;19979;-74
2021/09/16 06:49:46;;;;;;;;;;;;;;;-144.99;100.00;52393.06;5082458;28;20046;-73
2021/09/16 06:52:13;;;;;;;;;;;;;;;-144.99;100.00;52395.09;5103166;28;20028;-78
2021/09/16 06:54:39;;;;;;;;;;;;;;;-144.99;100.00;52419.56;5094076;28;20417;-73
2021/09/16 06:57:06;;;;;;;;;;;;;;;-144.99;100.00;52368.59;5084316;28;20037;-74
2021/09/16 06:59:32;;;;;;;;;;;;;;;-144.99;100.00;52415.47;5085088;28;21033;-74
2021/09/16 07:01:58;;;;;;;;;;;;;;;-144.99;100.00;52382.88;5088526;28;19990;-75
2021/09/16 07:04:25;;;;;;;;;;;;;;;-144.99;100.00;52354.34;5096373;28;20005;-74
2021/09/16 07:06:53;;;;;;;;;;;;;;;-144.99;100.00;52399.19;5079414;28;19977;-74
2021/09/16 07:09:19;;;;;;;;;;;;;;;-144.99;100.00;52413.44;5081392;28;20005;-76
2021/09/16 07:11:45;;;;;;;;;;;;;;;-144.99;100.00;52370.63;5090903;28;19984;-74
2021/09/16 07:14:12;;;;;;;;;;;;;;;-144.99;100.00;52407.31;5103677;28;19978;-75
2021/09/16 07:16:38;;;;;;;;;;;;;;;-144.99;100.00;52382.88;5103560;28;19987;-74
2021/09/16 07:19:05;;;;;;;;;;;;;;;-144.99;100.00;52391.03;5081797;28;20237;-76
2021/09/16 07:21:31;;;;;;;;;;;;;;;-144.99;100.00;52393.06;5082405;28;20436;-74
2021/09/16 07:23:59;;;;;;;;;;;;;;;-144.99;100.00;52380.84;5098907;28;19976;-76
2021/09/16 07:26:25;;;;;;;;;;;;;;;-144.99;100.00;52386.94;5103544;28;20151;-74
2021/09/16 07:28:52;;;;;;;;;;;;;;;-144.99;100.00;52403.25;5088962;28;20051;-73
2021/09/16 07:31:19;;;;;;;;;;;;;;;-144.99;100.00;52372.69;5085315;28;20081;-77
2021/09/16 07:33:45;;;;;;;;;;;;;;;-144.99;100.00;52411.41;5086418;28;20474;-74
2021/09/16 07:36:12;;;;;;;;;;;;;;;-144.99;100.00;52395.09;5090421;28;19981;-77
2021/09/16 07:38:38;;;;;;;;;;;;;;;-144.99;100.00;52374.72;5079444;28;19978;-76
2021/09/16 07:41:06;;;;;;;;;;;;;;;-144.99;100.00;52362.50;5085616;28;20547;-75
2021/09/16 07:43:32;;;;;;;;;;;;;;;-144.99;100.00;52397.13;5103892;28;20018;-72
2021/09/16 07:45:59;;;;;;;;;;;;;;;-144.99;100.00;52342.09;5107451;28;19986;-73
2021/09/16 07:48:25;;;;;;;;;;;;;;;-144.99;100.00;52366.56;5090783;28;19988;-73
2021/09/16 07:50:51;;;;;;;;;;;;;;;-144.99;100.00;52378.78;5086233;28;19991;-74
2021/09/16 07:53:18;;;;;;;;;;;;;;;-144.99;100.00;52417.53;5098096;28;20460;-73
2021/09/16 07:55:45;;;;;;;;;;;;;;;-144.99;100.00;52348.22;5087909;28;20061;-75
2021/09/16 07:58:13;;;;;;;;;;;;;;;-144.99;100.00;52378.78;5098522;28;20080;-74
2021/09/16 08:00:39;;;;;;;;;;;;;;;-144.99;100.00;52407.31;5088480;28;20431;-75
2021/09/16 08:03:06;;;;;;;;;;;;;;;-144.99;100.00;52368.59;5088430;28;20349;-75
2021/09/16 08:05:32;;;;;;;;;;;;;;;-144.99;100.00;52354.34;5076645;28;19961;-74
2021/09/16 08:07:58;;;;;;;;;;;;;;;-144.99;100.00;52395.09;5081550;28;20050;-75
2021/09/16 08:10:25;;;;;;;;;;;;;;;-144.99;100.00;52372.69;5083141;28;20465;-74
2021/09/16 08:12:52;;;;;;;;;;;;;;;-144.99;100.00;52378.78;5088570;28;20414;-73
2021/09/16 08:15:20;;;;;;;;;;;;;;;-144.99;100.00;52393.06;5107865;28;19977;-75
2021/09/16 08:17:46;;;;;;;;;;;;;;;-144.99;100.00;52366.56;5106531;28;19976;-74
2021/09/16 08:20:14;;;;;;;;;;;;;;;-144.99;100.00;52384.91;5092355;28;19987;-74
2021/09/16 08:22:40;;;;;;;;;;;;;;;-144.99;100.00;52419.56;5090248;28;20480;-74
2021/09/16 08:25:09;;;;;;;;;;;;;;;-144.99;100.00;52393.06;5106266;28;19928;-76
2021/09/16 08:27:35;;;;;;;;;;;;;;;-144.99;100.00;52313.56;5106846;28;19969;-74
2021/09/16 08:30:02;;;;;;;;;;;;;;;-144.99;100.00;52350.25;5090952;28;20436;-74
2021/09/16 08:32:30;;;;;;;;;;;;;;;-144.99;100.00;52352.28;5092787;28;20136;-75
2021/09/16 08:34:56;;;;;;;;;;;;;;;-144.99;100.00;52333.94;5086795;28;20011;-73
2021/09/16 08:37:23;;;;;;;;;;;;;;;-144.99;100.00;52348.22;5104843;28;20543;-74
2021/09/16 08:39:49;;;;;;;;;;;;;;;-144.99;100.00;52338.03;5089013;28;19992;-72
2021/09/16 08:42:16;;;;;;;;;;;;;;;-144.99;100.00;52329.88;5089302;28;19961;-73
2021/09/16 08:44:43;;;;;;;;;;;;;;;-144.99;100.00;52309.50;5102003;28;20044;-73
2021/09/16 08:47:11;;;;;;;;;;;;;;;-144.99;100.00;52338.03;5099959;28;20009;-75
2021/09/16 08:49:38;;;;;;;;;;;;;;;-144.99;100.00;52321.72;5084144;28;20167;-75
2021/09/16 08:52:05;;;;;;;;;;;;;;;-144.99;100.00;52354.34;5090467;28;20036;-73
2021/09/16 08:54:32;;;;;;;;;;;;;;;-144.99;100.00;52344.16;5097112;28;19949;-77
2021/09/16 08:57:01;;;;;;;;;;;;;;;-144.99;100.00;52317.66;5094269;28;19957;-73
2021/09/16 08:59:27;;;;;;;;;;;;;;;-144.99;98.94;52352.28;5098327;28;20298;-73
2021/09/16 09:01:54;;;;;;;;;;;;;;;-144.99;98.38;52321.72;5093248;28;19963;-73
2021/09/16 09:04:20;;;;;;;;;;;;;;;-144.99;97.50;52305.41;5098489;28;20065;-75
2021/09/16 09:06:48;;;;;;;;;;;;;;;-144.99;96.71;52325.81;5076810;28;20003;-75
2021/09/16 09:09:16;;;;;;;;;;;;;;;-144.99;97.06;52325.81;5082092;28;20358;-73
2021/09/16 09:11:53;;;;;;;;;;;;;;;-144.99;97.38;52329.88;5092314;28;19945;-74
2021/09/16 09:14:20;;;;;;;;;;;;;;;-144.99;97.83;52370.63;5106304;28;19955;-74
2021/09/16 09:16:46;;;;;;;;;;;;;;;-144.99;98.05;52342.09;5105210;28;19955;-76
2021/09/16 09:19:17;;;;;;;;;;;;;;;-144.99;98.20;52358.41;5097098;28;20326;-75
2021/09/16 09:21:44;;;;;;;;;;;;;;;-144.99;97.74;52354.34;5083203;28;20417;-74
2021/09/16 09:24:12;;;;;;;;;;;;;;;-144.99;97.71;52338.03;5103740;28;19977;-73
2021/09/16 09:26:39;;;;;;;;;;;;;;;-144.99;97.50;52309.50;5106774;28;19963;-75
2021/09/16 09:29:23;;;;;;;;;;;;;;;-144.99;97.36;52391.03;5098609;28;20053;-75
2021/09/16 09:31:55;;;;;;;;;;;;;;;-144.99;97.17;52325.81;5086441;28;20477;-73
2021/09/16 09:34:25;;;;;;;;;;;;;;;-144.99;97.27;52331.91;5076057;28;19947;-74
2021/09/16 09:36:52;;;;;;;;;;;;;;;-144.99;96.80;52342.09;5100456;28;19973;-74
2021/09/16 09:39:26;;;;;;;;;;;;;;;-144.99;95.73;52313.56;5098497;28;19999;-75
2021/09/16 09:41:55;;;;;;;;;;;;;;;-144.99;95.63;52362.50;5087376;28;20007;-74
2021/09/16 09:44:23;;;;;;;;;;;;;;;-144.99;94.67;52342.09;5088887;28;20324;-74
2021/09/16 09:46:50;;;;;;;;;;;;;;;-144.99;94.58;52378.78;5086404;28;20018;-76
2021/09/16 09:49:17;;;;;;;;;;;;;;;-144.99;94.41;52321.72;5084464;28;19964;-76
2021/09/16 09:51:45;;;;;;;;;;;;;;;-144.99;94.11;52325.81;5086676;28;20114;-76
2021/09/16 09:54:15;;;;;;;;;;;;;;;-144.99;93.85;52382.88;5089359;28;19940;-76
2021/09/16 09:56:56;;;;;;;;;;;;;;;-144.99;94.18;52329.88;5085278;28;20039;-76
2021/09/16 09:59:23;;;;;;;;;;;;;;;-144.99;94.41;52338.03;5081651;28;19994;-72
2021/09/16 10:01:49;;;;;;;;;;;;;;;-144.99;94.43;52378.78;5082909;28;20390;-74
2021/09/16 10:04:28;;;;;;;;;;;;;;;-144.99;94.12;52321.72;5089556;28;19968;-74
2021/09/16 10:06:58;;;;;;;;;;;;;;;-144.99;94.60;52333.94;5076475;28;19974;-74
2021/09/16 10:09:24;;;;;;;;;;;;;;;-144.99;94.39;52342.09;5087126;28;19983;-74
2021/09/16 10:11:53;;;;;;;;;;;;;;;-144.99;94.17;52356.38;5084895;28;20500;-74
2021/09/16 10:14:19;;;;;;;;;;;;;;;-144.99;93.66;52358.41;5096226;28;20172;-75
2021/09/16 10:16:46;;;;;;;;;;;;;;;-144.99;93.07;52313.56;5104404;28;19952;-75
2021/09/16 10:19:13;;;;;;;;;;;;;;;-144.99;93.84;52370.63;5103641;28;19994;-76
2021/09/16 10:21:40;;;;;;;;;;;;;;;-144.99;94.69;52374.72;5090817;28;19955;-75
2021/09/16 10:24:08;;;;;;;;;;;;;;;-144.99;96.02;52380.84;5085591;28;19987;-74
2021/09/16 10:26:35;;;;;;;;;;;;;;;-144.99;96.05;52358.41;5096186;28;20368;-76
2021/09/16 10:29:03;;;;;;;;;;;;;;;-144.99;96.29;52386.94;5103452;28;19988;-75
2021/09/16 10:31:30;;;;;;;;;;;;;;;-144.99;95.81;52380.84;5082002;28;20071;-75
2021/09/16 10:33:56;;;;;;;;;;;;;;;-144.99;95.39;52338.03;5088699;28;19951;-75
2021/09/16 10:36:23;;;;;;;;;;;;;;;-144.99;95.34;52364.53;5096352;28;19972;-76
2021/09/16 10:38:50;;;;;;;;;;;;;;;-144.99;94.92;52329.88;5076887;28;20038;-75
2021/09/16 10:41:21;;;;;;;;;;;;;;;-144.99;92.65;52342.09;5104351;28;19974;-77
2021/09/16 10:43:48;;;;;;;;;;;;;;;-144.99;91.85;52317.66;5079059;28;20193;-75
2021/09/16 10:46:27;;;;;;;;;;;;;;;-144.99;91.28;52346.19;5083837;28;20063;-75
2021/09/16 10:48:54;;;;;;;;;;;;;;;-144.99;90.45;52366.56;5077820;28;19961;-75
2021/09/16 10:51:37;;;;;;;;;;;;;;;-144.99;89.18;52317.66;5083495;28;19981;-77
2021/09/16 10:54:03;;;;;;;;;;;;;;;-144.99;88.83;52350.25;5085998;28;19952;-74
2021/09/16 10:56:39;;;;;;;;;;;;;;;-144.99;88.38;52325.81;5091480;28;19948;-75
2021/09/16 10:59:06;;;;;;;;;;;;;;;-144.99;87.67;52297.25;5103307;28;20065;-75
2021/09/16 11:01:50;;;;;;;;;;;;;;;-144.99;87.88;52348.22;5104371;28;19952;-75
2021/09/16 11:04:18;;;;;;;;;;;;;;;-144.99;87.74;52317.66;5086494;28;19945;-76
2021/09/16 11:06:45;;;;;;;;;;;;;;;-144.99;87.62;52333.94;5079318;28;20071;-75
2021/09/16 11:09:12;;;;;;;;;;;;;;;-144.99;87.78;52329.88;5083385;28;19948;-75
2021/09/16 11:11:49;;;;;;;;;;;;;;;-144.99;87.61;52374.72;5079971;28;19951;-77
2021/09/16 11:14:25;;;;;;;;;;;;;;;-144.99;88.24;52350.25;5082854;28;19952;-76
2021/09/16 11:16:53;;;;;;;;;;;;;;;-144.99;88.04;52350.25;5084219;28;19947;-75
2021/09/16 11:19:21;;;;;;;;;;;;;;;-144.99;88.46;52342.09;5102329;28;20441;-75
2021/09/16 11:21:57;;;;;;;;;;;;;;;-144.99;87.47;52338.03;5102951;28;19957;-77
2021/09/16 11:24:30;;;;;;;;;;;;;;;-144.99;86.46;52374.72;5094461;28;19957;-75
2021/09/16 11:26:56;;;;;;;;;;;;;;;-144.99;86.86;52358.41;5100926;28;19949;-76
2021/09/16 11:29:22;;;;;;;;;;;;;;;-144.99;89.56;52354.34;5085537;28;19960;-76
2021/09/16 11:31:49;;;;;;;;;;;;;;;-144.99;92.44;52368.59;5088835;28;19949;-77
2021/09/16 11:34:16;;;;;;;;;;;;;;;-144.99;93.91;52342.09;5085082;28;20076;-76
2021/09/16 11:37:01;;;;;;;;;;;;;;;-144.99;94.76;52360.44;5089396;28;19993;-75
2021/09/16 11:39:29;;;;;;;;;;;;;;;-144.99;95.74;52374.72;5097515;28;20001;-74
2021/09/16 11:42:07;;;;;;;;;;;;;;;-144.99;95.77;52319.69;5106383;28;19949;-75
2021/09/16 11:44:34;;;;;;;;;;;;;;;-144.99;96.53;52358.41;5096702;28;19964;-75
2021/09/16 11:47:00;;;;;;;;;;;;;;;-144.99;96.23;52366.56;5089582;28;20048;-76
2021/09/16 11:49:26;;;;;;;;;;;;;;;-144.99;95.72;52329.88;5089160;28;20043;-74
2021/09/16 11:51:53;;;;;;;;;;;;;;;-144.99;95.18;52354.34;5092623;28;19974;-74
2021/09/16 11:54:19;;;;;;;;;;;;;;;-144.99;94.38;52354.34;5101275;28;20329;-73
2021/09/16 11:56:47;;;;;;;;;;;;;;;-144.99;92.87;52370.63;5091134;28;19952;-73
2021/09/16 11:59:13;;;;;;;;;;;;;;;-144.99;93.05;52336.00;5086373;28;20026;-76
2021/09/16 12:01:40;;;;;;;;;;;;;;;-144.99;92.56;52362.50;5107290;28;20383;-74
2021/09/16 12:04:06;;;;;;;;;;;;;;;-144.99;91.91;52391.03;5100602;28;19973;-75
2021/09/16 12:06:35;;;;;;;;;;;;;;;-144.99;92.17;52366.56;5083648;28;20077;-76
2021/09/16 12:09:04;;;;;;;;;;;;;;;-144.99;91.37;52348.22;5093121;28;19950;-76
2021/09/16 12:11:31;;;;;;;;;;;;;;;-144.99;91.88;52362.50;5100434;22;19968;-74
2021/09/16 12:13:59;;;;;;;;;;;;;;;-144.99;93.26;52395.09;5057518;28;19997;-74
2021/09/16 12:16:27;;;;;;;;;;;;;;;-144.99;92.63;52350.25;5064388;28;19993;-73
2021/09/16 12:18:54;;;;;;;;;;;;;;;-144.99;91.72;52352.28;5088014;28;19988;-75
2021/09/16 12:21:22;;;;;;;;;;;;;;;-144.99;92.49;52333.94;5093350;28;20062;-75